Sapporo, Japan

10:49 PM JST on July 30, 2016 (GMT +0900)
Rue des Sausses | | Change Station

Elev 0 ft 43.05 °N, 141.33 °E | Updated 4 minutes ago

Mostly Cloudy
Mostly Cloudy
75.2 °F
Feels Like 75 °F
N
1.9
Wind Variable Wind from ESE
Gusts 5.0 mph

Today
High -- | Low -- °F
--% Chance of Precip.
Yesterday
High -- | Low -- °F
Precip. -- in
Pressure 29.92 in
Visibility 3.7 miles
Clouds Few 100 ft
Scattered Clouds 200 ft
Mostly Cloudy 300 ft
Heat Index 75 °F
Dew Point 71 °F
Humidity 86%
Rainfall 0.00 in
Snow Depth Not available.
4:23 AM 6:58 PM
Waning Crescent, 13% visible
METAR RJCC 301330Z 18009KT 6000 FEW001 SCT002 BKN003 20/20 Q1013 RMK 1ST001 4ST002 7ST003 A2993
Pressure 29.92 in
Visibility 3.7 miles
Clouds Few 100 ft
Scattered Clouds 200 ft
Mostly Cloudy 300 ft
Heat Index 75 °F
Dew Point 71 °F
Humidity 86%
Rainfall 0.00 in
Snow Depth Not available.
4:23 AM 6:58 PM
Waning Crescent, 13% visible
METAR RJCC 301330Z 18009KT 6000 FEW001 SCT002 BKN003 20/20 Q1013 RMK 1ST001 4ST002 7ST003 A2993

10-Day Weather Forecast

No radar image for this location.
×

Almanac

Astronomy

Jul. 30, 2016 Rise Set
Actual Time
Civil Twilight
Nautical Twilight
Astronomical Twilight
Moon
Length of Visible Light
Length of Day
Tomorrow will be .
, % of the Moon is Illuminated

Today's Extremes

Country Highs Country Lows

Community

WunderPhotos

Upload Photos

1,928,560 photos uploaded!

WunderBlog® & News

Nearby

Air Quality

  Air Quality AQ Index Pollutant
Not available.

Snow Depth

Station Depth Elevation

Earthquake Activity

City Distance Mag. Time & Date
Minimum magnitude displayed is 2.5.

Coastal Water Temperatures

Place Temperature

Stations

Nearby Weather Stations

Station Location Temp. Windchill Dew Point Humidity Wind Precip. Elev Updated Type